sensor_id;sensor_type;location;lat;lon;timestamp;temperature;humidity
32640;DHT22;19049;52.524;11.468;2023-05-27T00:00:57;6.20;92.10
32640;DHT22;19049;52.524;11.468;2023-05-27T00:05:49;5.70;95.00
32640;DHT22;19049;52.524;11.468;2023-05-27T00:08:15;6.10;92.80
32640;DHT22;19049;52.524;11.468;2023-05-27T00:10:40;6.40;95.00
32640;DHT22;19049;52.524;11.468;2023-05-27T00:13:06;6.00;94.10
32640;DHT22;19049;52.524;11.468;2023-05-27T00:17:59;6.10;94.10
32640;DHT22;19049;52.524;11.468;2023-05-27T00:20:28;6.20;85.80
32640;DHT22;19049;52.524;11.468;2023-05-27T00:22:55;5.50;92.40
32640;DHT22;19049;52.524;11.468;2023-05-27T00:25:22;6.10;93.00
32640;DHT22;19049;52.524;11.468;2023-05-27T00:27:48;5.40;78.60
32640;DHT22;19049;52.524;11.468;2023-05-27T00:30:15;6.20;94.40
32640;DHT22;19049;52.524;11.468;2023-05-27T00:35:08;5.40;93.70
32640;DHT22;19049;52.524;11.468;2023-05-27T00:40:00;5.50;92.90
32640;DHT22;19049;52.524;11.468;2023-05-27T00:42:25;5.20;91.20
32640;DHT22;19049;52.524;11.468;2023-05-27T00:44:51;5.20;82.40
32640;DHT22;19049;52.524;11.468;2023-05-27T00:47:17;5.30;90.30
32640;DHT22;19049;52.524;11.468;2023-05-27T00:52:10;5.00;93.10
32640;DHT22;19049;52.524;11.468;2023-05-27T00:54:35;4.50;92.90
32640;DHT22;19049;52.524;11.468;2023-05-27T00:59:28;5.50;94.40
32640;DHT22;19049;52.524;11.468;2023-05-27T01:01:53;5.40;94.50
32640;DHT22;19049;52.524;11.468;2023-05-27T01:15:08;5.20;91.80
32640;DHT22;19049;52.524;11.468;2023-05-27T01:17:36;5.60;90.10
32640;DHT22;19049;52.524;11.468;2023-05-27T01:20:03;5.10;76.10
32640;DHT22;19049;52.524;11.468;2023-05-27T01:22:31;5.20;94.00
32640;DHT22;19049;52.524;11.468;2023-05-27T01:24:57;5.50;94.40
32640;DHT22;19049;52.524;11.468;2023-05-27T01:27:23;4.90;85.50
32640;DHT22;19049;52.524;11.468;2023-05-27T01:29:52;4.70;93.80
32640;DHT22;19049;52.524;11.468;2023-05-27T01:32:25;5.00;76.70
32640;DHT22;19049;52.524;11.468;2023-05-27T01:37:36;4.70;78.20
32640;DHT22;19049;52.524;11.468;2023-05-27T01:40:02;4.90;93.60
32640;DHT22;19049;52.524;11.468;2023-05-27T01:44:57;5.20;94.60
32640;DHT22;19049;52.524;11.468;2023-05-27T01:52:14;5.00;94.20
32640;DHT22;19049;52.524;11.468;2023-05-27T01:54:40;5.20;94.10
32640;DHT22;19049;52.524;11.468;2023-05-27T01:57:06;4.70;95.90
32640;DHT22;19049;52.524;11.468;2023-05-27T01:59:31;6.10;94.80
32640;DHT22;19049;52.524;11.468;2023-05-27T02:06:49;5.10;94.10
32640;DHT22;19049;52.524;11.468;2023-05-27T02:09:14;5.30;94.60
32640;DHT22;19049;52.524;11.468;2023-05-27T02:11:40;4.90;78.80
32640;DHT22;19049;52.524;11.468;2023-05-27T02:14:06;4.00;93.10
32640;DHT22;19049;52.524;11.468;2023-05-27T02:16:32;4.60;93.40
32640;DHT22;19049;52.524;11.468;2023-05-27T02:19:00;4.80;93.60
32640;DHT22;19049;52.524;11.468;2023-05-27T02:21:26;5.80;94.00
32640;DHT22;19049;52.524;11.468;2023-05-27T02:28:44;4.80;88.40
32640;DHT22;19049;52.524;11.468;2023-05-27T02:31:09;4.40;91.90
32640;DHT22;19049;52.524;11.468;2023-05-27T02:33:35;4.10;96.80
32640;DHT22;19049;52.524;11.468;2023-05-27T02:36:01;4.20;96.90
32640;DHT22;19049;52.524;11.468;2023-05-27T02:38:26;4.20;94.30
32640;DHT22;19049;52.524;11.468;2023-05-27T02:43:18;4.50;90.70
32640;DHT22;19049;52.524;11.468;2023-05-27T02:45:43;4.10;94.60
32640;DHT22;19049;52.524;11.468;2023-05-27T02:48:09;4.20;96.50
32640;DHT22;19049;52.524;11.468;2023-05-27T02:50:34;4.30;95.30
32640;DHT22;19049;52.524;11.468;2023-05-27T02:53:00;4.50;89.60
32640;DHT22;19049;52.524;11.468;2023-05-27T03:00:18;3.80;94.60
32640;DHT22;19049;52.524;11.468;2023-05-27T03:02:44;3.70;94.50
32640;DHT22;19049;52.524;11.468;2023-05-27T03:07:35;4.00;94.80
32640;DHT22;19049;52.524;11.468;2023-05-27T03:10:01;3.90;89.20
32640;DHT22;19049;52.524;11.468;2023-05-27T03:12:27;3.50;91.40
32640;DHT22;19049;52.524;11.468;2023-05-27T03:17:19;3.50;91.70
32640;DHT22;19049;52.524;11.468;2023-05-27T03:19:45;4.30;95.20
32640;DHT22;19049;52.524;11.468;2023-05-27T03:27:03;4.70;95.70
32640;DHT22;19049;52.524;11.468;2023-05-27T03:29:29;3.90;80.80
32640;DHT22;19049;52.524;11.468;2023-05-27T03:31:56;3.90;95.40
32640;DHT22;19049;52.524;11.468;2023-05-27T03:34:22;3.20;95.30
32640;DHT22;19049;52.524;11.468;2023-05-27T03:36:47;4.10;95.90
32640;DHT22;19049;52.524;11.468;2023-05-27T03:39:15;4.10;92.70
32640;DHT22;19049;52.524;11.468;2023-05-27T03:41:42;3.80;96.10
32640;DHT22;19049;52.524;11.468;2023-05-27T03:44:07;4.20;90.50
32640;DHT22;19049;52.524;11.468;2023-05-27T03:46:34;4.00;81.50
32640;DHT22;19049;52.524;11.468;2023-05-27T03:48:59;3.90;96.10
32640;DHT22;19049;52.524;11.468;2023-05-27T03:51:25;4.10;96.40
32640;DHT22;19049;52.524;11.468;2023-05-27T03:56:17;3.70;89.60
32640;DHT22;19049;52.524;11.468;2023-05-27T04:01:09;4.40;96.30
32640;DHT22;19049;52.524;11.468;2023-05-27T04:03:35;3.90;96.90
32640;DHT22;19049;52.524;11.468;2023-05-27T04:06:01;4.30;97.10
32640;DHT22;19049;52.524;11.468;2023-05-27T04:08:26;4.20;97.30
32640;DHT22;19049;52.524;11.468;2023-05-27T04:10:53;4.20;96.70
32640;DHT22;19049;52.524;11.468;2023-05-27T04:15:46;5.60;99.00
32640;DHT22;19049;52.524;11.468;2023-05-27T04:18:12;5.30;99.50
32640;DHT22;19049;52.524;11.468;2023-05-27T04:20:39;4.80;99.40
32640;DHT22;19049;52.524;11.468;2023-05-27T04:23:09;5.20;96.80
32640;DHT22;19049;52.524;11.468;2023-05-27T04:25:35;5.40;96.80
32640;DHT22;19049;52.524;11.468;2023-05-27T04:28:19;5.90;85.90
32640;DHT22;19049;52.524;11.468;2023-05-27T04:33:15;6.50;85.50
32640;DHT22;19049;52.524;11.468;2023-05-27T04:43:20;7.40;85.30
32640;DHT22;19049;52.524;11.468;2023-05-27T04:45:46;7.80;97.20
32640;DHT22;19049;52.524;11.468;2023-05-27T04:50:39;8.80;97.80
32640;DHT22;19049;52.524;11.468;2023-05-27T05:00:24;9.80;97.70
32640;DHT22;19049;52.524;11.468;2023-05-27T05:03:19;9.50;85.50
32640;DHT22;19049;52.524;11.468;2023-05-27T05:05:51;9.60;97.80
32640;DHT22;19049;52.524;11.468;2023-05-27T05:08:17;10.00;96.50
32640;DHT22;19049;52.524;11.468;2023-05-27T05:13:09;10.30;91.90
32640;DHT22;19049;52.524;11.468;2023-05-27T05:15:35;11.40;89.40
32640;DHT22;19049;52.524;11.468;2023-05-27T05:20:28;12.00;85.60
32640;DHT22;19049;52.524;11.468;2023-05-27T05:22:53;12.40;85.80
32640;DHT22;19049;52.524;11.468;2023-05-27T05:27:45;12.10;94.60
32640;DHT22;19049;52.524;11.468;2023-05-27T05:30:11;13.50;94.70
32640;DHT22;19049;52.524;11.468;2023-05-27T05:32:36;14.20;96.20
32640;DHT22;19049;52.524;11.468;2023-05-27T05:37:28;14.20;83.70
32640;DHT22;19049;52.524;11.468;2023-05-27T06:01:49;16.60;92.40
32640;DHT22;19049;52.524;11.468;2023-05-27T06:16:26;18.30;90.40
32640;DHT22;19049;52.524;11.468;2023-05-27T06:21:20;18.40;91.40
32640;DHT22;19049;52.524;11.468;2023-05-27T06:40:47;19.90;84.10
32640;DHT22;19049;52.524;11.468;2023-05-27T06:50:32;20.60;83.30
32640;DHT22;19049;52.524;11.468;2023-05-27T06:57:50;21.80;83.20
32640;DHT22;19049;52.524;11.468;2023-05-27T07:00:16;21.30;68.50
32640;DHT22;19049;52.524;11.468;2023-05-27T07:05:08;22.30;79.10
32640;DHT22;19049;52.524;11.468;2023-05-27T07:07:33;22.40;80.30
32640;DHT22;19049;52.524;11.468;2023-05-27T07:09:59;21.70;79.30
32640;DHT22;19049;52.524;11.468;2023-05-27T07:12:25;22.00;78.80
32640;DHT22;19049;52.524;11.468;2023-05-27T07:14:50;22.00;79.70
32640;DHT22;19049;52.524;11.468;2023-05-27T07:17:16;22.30;64.80
32640;DHT22;19049;52.524;11.468;2023-05-27T07:19:42;22.40;61.10
32640;DHT22;19049;52.524;11.468;2023-05-27T07:22:07;22.50;61.60
32640;DHT22;19049;52.524;11.468;2023-05-27T07:24:33;22.50;60.50
32640;DHT22;19049;52.524;11.468;2023-05-27T07:26:59;22.50;56.90
32640;DHT22;19049;52.524;11.468;2023-05-27T07:29:25;22.60;59.60
32640;DHT22;19049;52.524;11.468;2023-05-27T07:31:50;22.60;59.50
32640;DHT22;19049;52.524;11.468;2023-05-27T07:34:16;22.70;59.90
32640;DHT22;19049;52.524;11.468;2023-05-27T07:36:41;22.70;60.00
32640;DHT22;19049;52.524;11.468;2023-05-27T07:39:07;23.00;72.30
32640;DHT22;19049;52.524;11.468;2023-05-27T07:41:32;22.80;57.90
32640;DHT22;19049;52.524;11.468;2023-05-27T07:43:58;23.00;58.00
32640;DHT22;19049;52.524;11.468;2023-05-27T07:46:24;23.50;71.30
32640;DHT22;19049;52.524;11.468;2023-05-27T07:48:50;23.40;72.30
32640;DHT22;19049;52.524;11.468;2023-05-27T07:51:16;23.40;71.60
32640;DHT22;19049;52.524;11.468;2023-05-27T08:08:17;25.40;62.60
32640;DHT22;19049;52.524;11.468;2023-05-27T08:10:43;24.30;62.80
32640;DHT22;19049;52.524;11.468;2023-05-27T08:15:35;24.40;63.60
32640;DHT22;19049;52.524;11.468;2023-05-27T08:18:01;25.60;65.20
32640;DHT22;19049;52.524;11.468;2023-05-27T08:20:27;24.90;64.40
32640;DHT22;19049;52.524;11.468;2023-05-27T08:22:52;24.50;64.90
32640;DHT22;19049;52.524;11.468;2023-05-27T08:25:18;24.70;62.00
32640;DHT22;19049;52.524;11.468;2023-05-27T08:27:48;25.00;60.90
32640;DHT22;19049;52.524;11.468;2023-05-27T08:30:14;25.50;54.40
32640;DHT22;19049;52.524;11.468;2023-05-27T08:37:33;26.20;59.70
32640;DHT22;19049;52.524;11.468;2023-05-27T08:39:58;26.10;51.40
32640;DHT22;19049;52.524;11.468;2023-05-27T08:42:27;25.60;50.10
32640;DHT22;19049;52.524;11.468;2023-05-27T08:54:40;25.80;48.80
32640;DHT22;19049;52.524;11.468;2023-05-27T08:57:09;25.90;45.90
32640;DHT22;19049;52.524;11.468;2023-05-27T08:59:35;25.50;52.80
32640;DHT22;19049;52.524;11.468;2023-05-27T09:02:02;25.70;58.50
32640;DHT22;19049;52.524;11.468;2023-05-27T09:04:31;25.80;58.60
32640;DHT22;19049;52.524;11.468;2023-05-27T09:09:23;25.90;51.90
32640;DHT22;19049;52.524;11.468;2023-05-27T09:11:48;25.80;56.10
32640;DHT22;19049;52.524;11.468;2023-05-27T09:14:22;25.40;44.30
32640;DHT22;19049;52.524;11.468;2023-05-27T09:19:18;26.20;46.30
32640;DHT22;19049;52.524;11.468;2023-05-27T09:21:43;25.20;57.70
32640;DHT22;19049;52.524;11.468;2023-05-27T09:24:10;25.20;59.10
32640;DHT22;19049;52.524;11.468;2023-05-27T09:29:06;26.10;45.90
32640;DHT22;19049;52.524;11.468;2023-05-27T09:31:39;25.40;55.20
32640;DHT22;19049;52.524;11.468;2023-05-27T09:34:12;26.80;56.20
32640;DHT22;19049;52.524;11.468;2023-05-27T09:36:56;26.20;44.70
32640;DHT22;19049;52.524;11.468;2023-05-27T09:39:22;25.50;54.20
32640;DHT22;19049;52.524;11.468;2023-05-27T09:41:57;26.80;58.10
32640;DHT22;19049;52.524;11.468;2023-05-27T09:44:28;26.70;54.30
32640;DHT22;19049;52.524;11.468;2023-05-27T09:49:20;27.00;55.80
32640;DHT22;19049;52.524;11.468;2023-05-27T09:51:47;27.00;44.90
32640;DHT22;19049;52.524;11.468;2023-05-27T09:54:17;26.40;44.20
32640;DHT22;19049;52.524;11.468;2023-05-27T09:56:45;25.90;51.10
32640;DHT22;19049;52.524;11.468;2023-05-27T10:04:06;26.40;51.40
32640;DHT22;19049;52.524;11.468;2023-05-27T10:06:32;25.90;43.50
32640;DHT22;19049;52.524;11.468;2023-05-27T10:08:58;26.30;53.00
32640;DHT22;19049;52.524;11.468;2023-05-27T10:11:25;25.60;46.70
32640;DHT22;19049;52.524;11.468;2023-05-27T10:13:54;26.60;53.70
32640;DHT22;19049;52.524;11.468;2023-05-27T10:16:21;26.00;52.70
32640;DHT22;19049;52.524;11.468;2023-05-27T10:18:48;25.90;55.50
32640;DHT22;19049;52.524;11.468;2023-05-27T10:21:19;26.00;54.10
32640;DHT22;19049;52.524;11.468;2023-05-27T10:23:55;27.10;53.80
32640;DHT22;19049;52.524;11.468;2023-05-27T10:26:35;26.50;41.00
32640;DHT22;19049;52.524;11.468;2023-05-27T10:29:10;26.00;50.90
32640;DHT22;19049;52.524;11.468;2023-05-27T10:31:50;26.70;51.80
32640;DHT22;19049;52.524;11.468;2023-05-27T10:34:17;27.10;49.30
32640;DHT22;19049;52.524;11.468;2023-05-27T10:36:44;26.50;41.10
32640;DHT22;19049;52.524;11.468;2023-05-27T10:39:16;25.70;47.60
32640;DHT22;19049;52.524;11.468;2023-05-27T10:41:53;25.80;49.80
32640;DHT22;19049;52.524;11.468;2023-05-27T10:44:32;26.10;51.10
32640;DHT22;19049;52.524;11.468;2023-05-27T10:47:02;25.70;42.20
32640;DHT22;19049;52.524;11.468;2023-05-27T10:52:08;26.20;41.30
32640;DHT22;19049;52.524;11.468;2023-05-27T10:54:43;26.20;51.30
32640;DHT22;19049;52.524;11.468;2023-05-27T10:57:09;26.20;41.50
32640;DHT22;19049;52.524;11.468;2023-05-27T10:59:41;26.80;51.80
32640;DHT22;19049;52.524;11.468;2023-05-27T11:02:08;26.20;45.70
32640;DHT22;19049;52.524;11.468;2023-05-27T11:04:37;26.30;41.60
32640;DHT22;19049;52.524;11.468;2023-05-27T11:07:03;26.50;41.40
32640;DHT22;19049;52.524;11.468;2023-05-27T11:09:29;27.10;51.10
32640;DHT22;19049;52.524;11.468;2023-05-27T11:12:01;27.10;43.30
32640;DHT22;19049;52.524;11.468;2023-05-27T11:29:14;26.60;38.60
32640;DHT22;19049;52.524;11.468;2023-05-27T11:31:40;26.70;49.40
32640;DHT22;19049;52.524;11.468;2023-05-27T11:34:16;27.00;48.10
32640;DHT22;19049;52.524;11.468;2023-05-27T11:36:44;26.70;39.80
32640;DHT22;19049;52.524;11.468;2023-05-27T11:39:14;26.70;39.40
32640;DHT22;19049;52.524;11.468;2023-05-27T11:41:51;26.80;49.00
32640;DHT22;19049;52.524;11.468;2023-05-27T11:44:18;27.40;49.80
32640;DHT22;19049;52.524;11.468;2023-05-27T11:46:45;26.90;39.90
32640;DHT22;19049;52.524;11.468;2023-05-27T11:49:16;27.00;39.90
32640;DHT22;19049;52.524;11.468;2023-05-27T11:54:18;27.00;39.10
32640;DHT22;19049;52.524;11.468;2023-05-27T11:56:45;27.10;39.50
32640;DHT22;19049;52.524;11.468;2023-05-27T11:59:10;27.90;48.10
32640;DHT22;19049;52.524;11.468;2023-05-27T12:01:36;26.90;48.80
32640;DHT22;19049;52.524;11.468;2023-05-27T12:04:02;26.80;48.70
32640;DHT22;19049;52.524;11.468;2023-05-27T12:16:36;27.40;49.10
32640;DHT22;19049;52.524;11.468;2023-05-27T12:19:01;27.60;38.60
32640;DHT22;19049;52.524;11.468;2023-05-27T12:21:27;27.70;38.70
32640;DHT22;19049;52.524;11.468;2023-05-27T12:23:53;27.90;37.70
32640;DHT22;19049;52.524;11.468;2023-05-27T12:26:18;28.00;37.90
32640;DHT22;19049;52.524;11.468;2023-05-27T12:28:45;28.00;36.90
32640;DHT22;19049;52.524;11.468;2023-05-27T12:31:11;28.00;36.30
32640;DHT22;19049;52.524;11.468;2023-05-27T12:33:37;28.00;36.30
32640;DHT22;19049;52.524;11.468;2023-05-27T12:36:03;28.00;36.70
32640;DHT22;19049;52.524;11.468;2023-05-27T12:38:31;28.00;36.30
32640;DHT22;19049;52.524;11.468;2023-05-27T12:40:57;28.00;36.80
32640;DHT22;19049;52.524;11.468;2023-05-27T12:43:23;28.10;37.00
32640;DHT22;19049;52.524;11.468;2023-05-27T12:45:49;28.20;37.10
32640;DHT22;19049;52.524;11.468;2023-05-27T12:48:16;28.30;37.40
32640;DHT22;19049;52.524;11.468;2023-05-27T12:50:43;29.10;42.80
32640;DHT22;19049;52.524;11.468;2023-05-27T12:53:09;28.50;46.30
32640;DHT22;19049;52.524;11.468;2023-05-27T12:55:36;28.60;36.70
32640;DHT22;19049;52.524;11.468;2023-05-27T12:58:02;28.70;36.60
32640;DHT22;19049;52.524;11.468;2023-05-27T13:00:28;28.90;36.70
32640;DHT22;19049;52.524;11.468;2023-05-27T13:02:54;28.60;43.30
32640;DHT22;19049;52.524;11.468;2023-05-27T13:08:00;29.50;35.30
32640;DHT22;19049;52.524;11.468;2023-05-27T13:15:19;29.40;41.40
32640;DHT22;19049;52.524;11.468;2023-05-27T13:17:46;29.50;34.70
32640;DHT22;19049;52.524;11.468;2023-05-27T13:20:13;29.30;41.90
32640;DHT22;19049;52.524;11.468;2023-05-27T13:22:39;30.20;42.10
32640;DHT22;19049;52.524;11.468;2023-05-27T13:25:05;29.80;41.10
32640;DHT22;19049;52.524;11.468;2023-05-27T13:27:32;29.80;37.00
32640;DHT22;19049;52.524;11.468;2023-05-27T13:32:24;30.50;43.50
32640;DHT22;19049;52.524;11.468;2023-05-27T13:34:50;30.00;41.70
32640;DHT22;19049;52.524;11.468;2023-05-27T13:39:43;29.50;41.50
32640;DHT22;19049;52.524;11.468;2023-05-27T13:42:09;30.20;33.60
32640;DHT22;19049;52.524;11.468;2023-05-27T13:47:01;29.70;41.20
32640;DHT22;19049;52.524;11.468;2023-05-27T13:51:53;30.00;37.60
32640;DHT22;19049;52.524;11.468;2023-05-27T13:59:11;30.50;32.80
32640;DHT22;19049;52.524;11.468;2023-05-27T14:01:38;31.40;37.50
32640;DHT22;19049;52.524;11.468;2023-05-27T14:04:04;31.10;38.60
32640;DHT22;19049;52.524;11.468;2023-05-27T14:06:30;30.40;38.30
32640;DHT22;19049;52.524;11.468;2023-05-27T14:11:23;31.20;38.60
32640;DHT22;19049;52.524;11.468;2023-05-27T14:13:49;31.10;39.60
32640;DHT22;19049;52.524;11.468;2023-05-27T14:16:15;31.70;40.20
32640;DHT22;19049;52.524;11.468;2023-05-27T14:21:08;30.50;39.50
32640;DHT22;19049;52.524;11.468;2023-05-27T14:23:34;30.60;39.20
32640;DHT22;19049;52.524;11.468;2023-05-27T14:26:00;31.70;38.80
32640;DHT22;19049;52.524;11.468;2023-05-27T14:33:18;30.20;43.80
32640;DHT22;19049;52.524;11.468;2023-05-27T14:45:35;31.80;35.20
32640;DHT22;19049;52.524;11.468;2023-05-27T14:52:53;30.90;30.90
32640;DHT22;19049;52.524;11.468;2023-05-27T14:55:19;31.40;38.90
32640;DHT22;19049;52.524;11.468;2023-05-27T14:57:45;31.30;38.50
32640;DHT22;19049;52.524;11.468;2023-05-27T15:00:11;31.30;38.70
32640;DHT22;19049;52.524;11.468;2023-05-27T15:02:37;31.20;30.30
32640;DHT22;19049;52.524;11.468;2023-05-27T15:05:04;30.50;37.70
32640;DHT22;19049;52.524;11.468;2023-05-27T15:07:33;31.10;29.50
32640;DHT22;19049;52.524;11.468;2023-05-27T15:10:00;31.50;37.00
32640;DHT22;19049;52.524;11.468;2023-05-27T15:12:28;31.30;39.20
32640;DHT22;19049;52.524;11.468;2023-05-27T15:17:29;30.50;38.60
32640;DHT22;19049;52.524;11.468;2023-05-27T15:19:55;30.60;38.50
32640;DHT22;19049;52.524;11.468;2023-05-27T15:29:38;31.10;35.30
32640;DHT22;19049;52.524;11.468;2023-05-27T15:41:49;30.10;39.10
32640;DHT22;19049;52.524;11.468;2023-05-27T15:44:15;30.40;33.20
32640;DHT22;19049;52.524;11.468;2023-05-27T15:53:59;29.60;42.60
32640;DHT22;19049;52.524;11.468;2023-05-27T16:08:37;29.50;31.10
32640;DHT22;19049;52.524;11.468;2023-05-27T16:30:33;28.30;40.70
32640;DHT22;19049;52.524;11.468;2023-05-27T16:37:51;28.50;39.80
32640;DHT22;19049;52.524;11.468;2023-05-27T16:47:36;29.50;35.40
32640;DHT22;19049;52.524;11.468;2023-05-27T16:54:54;28.10;41.60
32640;DHT22;19049;52.524;11.468;2023-05-27T17:02:12;28.90;42.10
32640;DHT22;19049;52.524;11.468;2023-05-27T17:09:35;29.00;36.30
32640;DHT22;19049;52.524;11.468;2023-05-27T17:12:01;28.40;42.20
32640;DHT22;19049;52.524;11.468;2023-05-27T17:14:26;27.60;40.30
32640;DHT22;19049;52.524;11.468;2023-05-27T17:16:52;27.90;36.40
32640;DHT22;19049;52.524;11.468;2023-05-27T17:24:10;27.00;40.90
32640;DHT22;19049;52.524;11.468;2023-05-27T17:26:35;27.00;41.90
32640;DHT22;19049;52.524;11.468;2023-05-27T17:29:01;26.80;38.90
32640;DHT22;19049;52.524;11.468;2023-05-27T17:36:19;26.30;40.30
32640;DHT22;19049;52.524;11.468;2023-05-27T17:38:46;26.40;40.70
32640;DHT22;19049;52.524;11.468;2023-05-27T17:41:11;26.60;40.00
32640;DHT22;19049;52.524;11.468;2023-05-27T17:46:03;27.00;41.30
32640;DHT22;19049;52.524;11.468;2023-05-27T17:53:22;26.00;40.60
32640;DHT22;19049;52.524;11.468;2023-05-27T17:55:48;26.30;43.20
32640;DHT22;19049;52.524;11.468;2023-05-27T17:58:14;25.40;43.70
32640;DHT22;19049;52.524;11.468;2023-05-27T18:00:40;25.10;43.70
32640;DHT22;19049;52.524;11.468;2023-05-27T18:03:06;25.60;33.50
32640;DHT22;19049;52.524;11.468;2023-05-27T18:05:32;25.50;33.50
32640;DHT22;19049;52.524;11.468;2023-05-27T18:07:59;25.40;33.40
32640;DHT22;19049;52.524;11.468;2023-05-27T18:10:25;25.20;44.00
32640;DHT22;19049;52.524;11.468;2023-05-27T18:12:52;25.00;33.40
32640;DHT22;19049;52.524;11.468;2023-05-27T18:15:18;24.80;33.70
32640;DHT22;19049;52.524;11.468;2023-05-27T18:17:44;23.80;45.90
32640;DHT22;19049;52.524;11.468;2023-05-27T18:20:10;24.20;34.30
32640;DHT22;19049;52.524;11.468;2023-05-27T18:22:37;23.90;34.40
32640;DHT22;19049;52.524;11.468;2023-05-27T18:25:04;22.60;41.50
32640;DHT22;19049;52.524;11.468;2023-05-27T18:27:31;23.00;34.70
32640;DHT22;19049;52.524;11.468;2023-05-27T18:37:15;22.80;38.50
32640;DHT22;19049;52.524;11.468;2023-05-27T18:39:41;22.10;36.60
32640;DHT22;19049;52.524;11.468;2023-05-27T18:42:06;21.70;50.60
32640;DHT22;19049;52.524;11.468;2023-05-27T18:44:33;21.70;37.20
32640;DHT22;19049;52.524;11.468;2023-05-27T18:46:59;21.60;37.80
32640;DHT22;19049;52.524;11.468;2023-05-27T18:54:20;20.30;49.70
32640;DHT22;19049;52.524;11.468;2023-05-27T19:01:42;20.30;39.10
32640;DHT22;19049;52.524;11.468;2023-05-27T19:18:45;19.00;46.10
32640;DHT22;19049;52.524;11.468;2023-05-27T19:21:11;17.80;44.50
32640;DHT22;19049;52.524;11.468;2023-05-27T19:23:37;18.40;46.90
32640;DHT22;19049;52.524;11.468;2023-05-27T19:26:03;18.00;51.20
32640;DHT22;19049;52.524;11.468;2023-05-27T19:35:48;16.90;55.60
32640;DHT22;19049;52.524;11.468;2023-05-27T19:43:05;16.80;57.50
32640;DHT22;19049;52.524;11.468;2023-05-27T19:47:57;15.80;57.90
32640;DHT22;19049;52.524;11.468;2023-05-27T19:55:18;15.10;52.50
32640;DHT22;19049;52.524;11.468;2023-05-27T20:00:10;14.80;51.70
32640;DHT22;19049;52.524;11.468;2023-05-27T20:02:35;15.30;62.60
32640;DHT22;19049;52.524;11.468;2023-05-27T20:05:02;14.60;48.00
32640;DHT22;19049;52.524;11.468;2023-05-27T20:07:28;14.00;63.40
32640;DHT22;19049;52.524;11.468;2023-05-27T20:09:53;14.80;53.90
32640;DHT22;19049;52.524;11.468;2023-05-27T20:12:46;14.70;49.00
32640;DHT22;19049;52.524;11.468;2023-05-27T20:15:13;13.60;62.30
32640;DHT22;19049;52.524;11.468;2023-05-27T20:17:39;13.60;62.70
32640;DHT22;19049;52.524;11.468;2023-05-27T20:20:07;13.70;49.90
32640;DHT22;19049;52.524;11.468;2023-05-27T20:22:37;13.50;50.10
32640;DHT22;19049;52.524;11.468;2023-05-27T20:25:03;13.00;66.80
32640;DHT22;19049;52.524;11.468;2023-05-27T20:29:55;12.70;63.70
32640;DHT22;19049;52.524;11.468;2023-05-27T20:32:21;13.00;55.50
32640;DHT22;19049;52.524;11.468;2023-05-27T20:34:47;13.00;67.70
32640;DHT22;19049;52.524;11.468;2023-05-27T20:37:13;12.90;66.50
32640;DHT22;19049;52.524;11.468;2023-05-27T20:42:06;12.90;57.30
32640;DHT22;19049;52.524;11.468;2023-05-27T20:44:34;11.90;53.20
32640;DHT22;19049;52.524;11.468;2023-05-27T20:47:01;12.70;68.50
32640;DHT22;19049;52.524;11.468;2023-05-27T20:49:27;12.00;57.50
32640;DHT22;19049;52.524;11.468;2023-05-27T20:51:55;12.20;71.90
32640;DHT22;19049;52.524;11.468;2023-05-27T20:54:21;11.50;68.30
32640;DHT22;19049;52.524;11.468;2023-05-27T21:01:38;11.30;63.10
32640;DHT22;19049;52.524;11.468;2023-05-27T21:06:33;11.00;71.60
32640;DHT22;19049;52.524;11.468;2023-05-27T21:08:59;11.40;72.10
32640;DHT22;19049;52.524;11.468;2023-05-27T21:11:25;10.10;60.30
32640;DHT22;19049;52.524;11.468;2023-05-27T21:13:51;11.90;68.40
32640;DHT22;19049;52.524;11.468;2023-05-27T21:16:16;11.00;59.80
32640;DHT22;19049;52.524;11.468;2023-05-27T21:23:34;11.90;78.50
32640;DHT22;19049;52.524;11.468;2023-05-27T21:25:59;11.30;78.20
32640;DHT22;19049;52.524;11.468;2023-05-27T21:28:25;11.10;73.70
32640;DHT22;19049;52.524;11.468;2023-05-27T21:30:51;10.60;73.60
32640;DHT22;19049;52.524;11.468;2023-05-27T21:33:17;10.80;73.80
32640;DHT22;19049;52.524;11.468;2023-05-27T21:35:42;10.80;67.20
32640;DHT22;19049;52.524;11.468;2023-05-27T21:38:08;10.90;65.70
32640;DHT22;19049;52.524;11.468;2023-05-27T21:43:03;9.70;64.10
32640;DHT22;19049;52.524;11.468;2023-05-27T21:47:54;9.80;69.60
32640;DHT22;19049;52.524;11.468;2023-05-27T21:50:20;9.80;77.70
32640;DHT22;19049;52.524;11.468;2023-05-27T21:52:46;10.50;75.60
32640;DHT22;19049;52.524;11.468;2023-05-27T21:57:38;10.20;65.20
32640;DHT22;19049;52.524;11.468;2023-05-27T22:00:06;9.80;63.10
32640;DHT22;19049;52.524;11.468;2023-05-27T22:02:33;9.70;74.90
32640;DHT22;19049;52.524;11.468;2023-05-27T22:04:58;10.50;76.70
32640;DHT22;19049;52.524;11.468;2023-05-27T22:12:16;9.90;77.40
32640;DHT22;19049;52.524;11.468;2023-05-27T22:14:43;9.60;79.70
32640;DHT22;19049;52.524;11.468;2023-05-27T22:19:34;9.00;74.30
32640;DHT22;19049;52.524;11.468;2023-05-27T22:24:26;9.80;64.80
32640;DHT22;19049;52.524;11.468;2023-05-27T22:26:51;9.00;82.00
32640;DHT22;19049;52.524;11.468;2023-05-27T22:29:17;9.60;81.20
32640;DHT22;19049;52.524;11.468;2023-05-27T22:31:42;9.10;74.50
32640;DHT22;19049;52.524;11.468;2023-05-27T22:36:34;9.10;77.90
32640;DHT22;19049;52.524;11.468;2023-05-27T22:39:01;9.30;74.40
32640;DHT22;19049;52.524;11.468;2023-05-27T22:41:26;8.80;69.30
32640;DHT22;19049;52.524;11.468;2023-05-27T22:43:52;9.10;67.10
32640;DHT22;19049;52.524;11.468;2023-05-27T22:46:18;9.20;80.10
32640;DHT22;19049;52.524;11.468;2023-05-27T22:48:43;8.90;81.20
32640;DHT22;19049;52.524;11.468;2023-05-27T22:56:10;8.60;60.70
32640;DHT22;19049;52.524;11.468;2023-05-27T23:01:02;9.00;80.60
32640;DHT22;19049;52.524;11.468;2023-05-27T23:03:28;8.70;80.40
32640;DHT22;19049;52.524;11.468;2023-05-27T23:05:53;7.50;80.00
32640;DHT22;19049;52.524;11.468;2023-05-27T23:08:19;8.40;80.80
32640;DHT22;19049;52.524;11.468;2023-05-27T23:18:03;8.30;70.70
32640;DHT22;19049;52.524;11.468;2023-05-27T23:20:28;8.80;81.50
32640;DHT22;19049;52.524;11.468;2023-05-27T23:25:20;8.70;81.30
32640;DHT22;19049;52.524;11.468;2023-05-27T23:32:40;8.20;69.70
32640;DHT22;19049;52.524;11.468;2023-05-27T23:35:07;8.30;81.70
32640;DHT22;19049;52.524;11.468;2023-05-27T23:37:33;8.50;83.80
32640;DHT22;19049;52.524;11.468;2023-05-27T23:39:58;7.60;67.10
32640;DHT22;19049;52.524;11.468;2023-05-27T23:44:50;8.90;83.80